createdAt,value
2023-04-11T00:01:21.910Z,100105.84
2023-04-11T00:02:45.466Z,100104.69
2023-04-11T00:04:35.482Z,100108.03
2023-04-11T00:05:58.101Z,100092.28
2023-04-11T00:07:20.349Z,100093.97
2023-04-11T00:08:44.874Z,100084.41
2023-04-11T00:10:14.049Z,100089.75
2023-04-11T00:11:38.283Z,100081.72
2023-04-11T00:13:08.371Z,100078.72
2023-04-11T00:14:32.525Z,100073.00
2023-04-11T00:15:56.022Z,100076.19
2023-04-11T00:17:21.697Z,100082.06
2023-04-11T00:18:48.704Z,100081.19
2023-04-11T00:20:11.130Z,100080.56
2023-04-11T00:21:40.309Z,100080.56
2023-04-11T00:23:03.124Z,100073.00
2023-04-11T00:24:46.276Z,100081.03
2023-04-11T00:26:11.355Z,100067.97
2023-04-11T00:27:35.831Z,100055.91
2023-04-11T00:29:00.685Z,100077.19
2023-04-11T00:30:27.067Z,100053.22
2023-04-11T00:31:48.684Z,100073.69
2023-04-11T00:33:11.320Z,100068.63
2023-04-11T00:34:36.713Z,100061.25
2023-04-11T00:35:59.399Z,100067.97
2023-04-11T00:37:24.583Z,100070.47
2023-04-11T00:38:47.295Z,100049.19
2023-04-11T00:40:12.590Z,100053.06
2023-04-11T00:41:45.432Z,100045.84
2023-04-11T00:43:11.344Z,100053.38
2023-04-11T00:44:35.160Z,100043.69
2023-04-11T00:45:58.015Z,100054.72
2023-04-11T00:47:19.287Z,100053.06
2023-04-11T00:48:45.805Z,100058.44
2023-04-11T00:50:14.243Z,100056.75
2023-04-11T00:51:37.028Z,100053.22
2023-04-11T00:53:01.473Z,100047.53
2023-04-11T00:54:29.411Z,100048.34
2023-04-11T00:55:52.376Z,100052.53
2023-04-11T00:57:14.920Z,100043.00
2023-04-11T00:58:38.129Z,100041.50
2023-04-11T01:00:01.254Z,100039.97
2023-04-11T01:01:26.089Z,100032.09
2023-04-11T01:02:47.986Z,100031.94
2023-04-11T01:04:12.089Z,100025.41
2023-04-11T01:05:43.780Z,100017.88
2023-04-11T01:07:10.631Z,100012.34
2023-04-11T01:08:36.440Z,100014.00
2023-04-11T01:10:01.461Z,100010.81
2023-04-11T01:11:29.937Z,100016.50
2023-04-11T01:12:53.458Z,100028.25
2023-04-11T01:14:17.806Z,100013.00
2023-04-11T01:15:43.148Z,100026.06
2023-04-11T01:17:14.987Z,100023.38
2023-04-11T01:18:40.405Z,100034.09
2023-04-11T01:20:02.820Z,100026.25
2023-04-11T01:21:27.335Z,100030.72
2023-04-11T01:22:51.353Z,100024.19
2023-04-11T01:24:15.001Z,100010.63
2023-04-11T01:25:44.104Z,100016.84
2023-04-11T01:27:05.262Z,100018.16
2023-04-11T01:28:33.384Z,100013.97
2023-04-11T01:29:57.013Z,100010.63
2023-04-11T01:31:22.568Z,100000.41
2023-04-11T01:32:47.471Z,99991.19
2023-04-11T01:34:13.480Z,100003.09
2023-04-11T01:35:50.677Z,99997.22
2023-04-11T01:37:14.018Z,99992.69
2023-04-11T01:38:38.148Z,99984.66
2023-04-11T01:40:02.593Z,99985.31
2023-04-11T01:41:31.145Z,99989.66
2023-04-11T01:42:55.996Z,99991.50
2023-04-11T01:44:18.884Z,99986.34
2023-04-11T01:45:42.206Z,99971.38
2023-04-11T01:47:05.046Z,99977.28
2023-04-11T01:48:27.444Z,99970.38
2023-04-11T01:49:58.145Z,99975.75
2023-04-11T01:51:21.186Z,99964.34
2023-04-11T01:52:42.429Z,99959.00
2023-04-11T01:54:06.411Z,99962.50
2023-04-11T01:55:29.443Z,99962.50
2023-04-11T01:56:56.133Z,99950.78
2023-04-11T01:58:17.453Z,99948.25
2023-04-11T01:59:40.017Z,99962.66
2023-04-11T02:01:04.340Z,99955.66
2023-04-11T02:02:27.218Z,99944.06
2023-04-11T02:03:51.312Z,99954.13
2023-04-11T02:05:16.070Z,99939.88
2023-04-11T02:06:38.710Z,99938.72
2023-04-11T02:07:59.731Z,99943.22
2023-04-11T02:09:22.258Z,99944.25
2023-04-11T02:10:45.403Z,99940.22
2023-04-11T02:12:07.942Z,99933.00
2023-04-11T02:13:32.528Z,99936.03
2023-04-11T02:14:55.796Z,99938.72
2023-04-11T02:16:18.481Z,99931.00
2023-04-11T02:17:45.717Z,99917.13
2023-04-11T02:19:08.337Z,99919.97
2023-04-11T02:20:29.489Z,99921.47
2023-04-11T02:21:54.404Z,99898.41
2023-04-11T02:23:16.479Z,99921.31
2023-04-11T02:24:39.436Z,99910.13
2023-04-11T02:26:03.570Z,99916.81
2023-04-11T02:27:26.026Z,99898.56
2023-04-11T02:28:52.803Z,99897.56
2023-04-11T02:30:16.149Z,99898.25
2023-04-11T02:31:40.292Z,99886.34
2023-04-11T02:33:06.305Z,99879.81
2023-04-11T02:34:29.415Z,99893.72
2023-04-11T02:35:51.710Z,99888.72
2023-04-11T02:37:13.120Z,99891.38
2023-04-11T02:38:37.787Z,99891.53
2023-04-11T02:39:59.009Z,99886.53
2023-04-11T02:41:22.744Z,99888.66
2023-04-11T02:42:45.194Z,99890.38
2023-04-11T02:44:06.715Z,99889.19
2023-04-11T02:45:31.991Z,99900.06
2023-04-11T02:46:56.499Z,99897.72
2023-04-11T02:48:21.744Z,99912.94
2023-04-11T02:50:19.502Z,99898.06
2023-04-11T02:51:45.977Z,99906.22
2023-04-11T02:53:11.512Z,99910.91
2023-04-11T02:54:38.871Z,99903.91
2023-04-11T02:56:01.649Z,99909.41
2023-04-11T02:57:24.521Z,99906.91
2023-04-11T02:58:47.504Z,99896.34
2023-04-11T03:00:13.055Z,99883.97
2023-04-11T03:01:43.942Z,99879.63
2023-04-11T03:03:06.710Z,99884.97
2023-04-11T03:04:34.816Z,99874.59
2023-04-11T03:06:07.102Z,99879.47
2023-04-11T03:07:34.100Z,99880.44
2023-04-11T03:08:59.098Z,99871.09
2023-04-11T03:10:20.858Z,99869.25
2023-04-11T03:11:47.404Z,99880.09
2023-04-11T03:13:13.796Z,99871.44
2023-04-11T03:14:37.345Z,99868.91
2023-04-11T03:15:59.958Z,99855.19
2023-04-11T03:17:24.819Z,99856.84
2023-04-11T03:18:47.317Z,99856.16
2023-04-11T03:20:13.163Z,99861.69
2023-04-11T03:21:42.215Z,99860.72
2023-04-11T03:23:11.238Z,99844.28
2023-04-11T03:24:34.498Z,99856.19
2023-04-11T03:25:58.629Z,99840.63
2023-04-11T03:27:22.220Z,99854.34
2023-04-11T03:28:50.640Z,99842.97
2023-04-11T03:30:16.700Z,99836.44
2023-04-11T03:31:45.141Z,99838.63
2023-04-11T03:33:08.626Z,99842.16
2023-04-11T03:34:34.733Z,99834.94
2023-04-11T03:36:01.756Z,99834.59
2023-04-11T03:37:26.857Z,99837.28
2023-04-11T03:38:49.465Z,99841.81
2023-04-11T03:40:14.582Z,99844.34
2023-04-11T03:41:41.271Z,99832.59
2023-04-11T03:43:05.501Z,99827.06
2023-04-11T03:44:39.303Z,99827.75
2023-04-11T03:46:03.919Z,99825.25
2023-04-11T03:47:43.583Z,99825.75
2023-04-11T03:49:20.793Z,99825.06
2023-04-11T03:50:49.292Z,99809.50
2023-04-11T03:52:19.239Z,99807.03
2023-04-11T03:53:44.388Z,99805.03
2023-04-11T03:55:41.351Z,99806.19
2023-04-11T03:57:06.547Z,99796.31
2023-04-11T03:58:30.379Z,99808.03
2023-04-11T03:59:54.703Z,99797.81
2023-04-11T04:01:19.577Z,99809.88
2023-04-11T04:02:50.877Z,99803.19
2023-04-11T04:05:15.800Z,99810.88
2023-04-11T04:06:40.312Z,99806.38
2023-04-11T04:08:02.900Z,99799.53
2023-04-11T04:09:45.324Z,99809.06
2023-04-11T04:11:09.046Z,99778.59
2023-04-11T04:12:33.378Z,99781.78
2023-04-11T04:14:25.327Z,99787.47
2023-04-11T04:15:51.601Z,99785.47
2023-04-11T04:17:19.017Z,99779.94
2023-04-11T04:18:42.959Z,99793.50
2023-04-11T04:20:07.606Z,99787.47
2023-04-11T04:21:33.052Z,99792.16
2023-04-11T04:22:56.736Z,99778.44
2023-04-11T04:24:27.556Z,99786.97
2023-04-11T04:25:58.309Z,99783.47
2023-04-11T04:27:25.568Z,99785.13
2023-04-11T04:28:49.552Z,99796.16
2023-04-11T04:30:19.451Z,99790.31
2023-04-11T04:32:13.742Z,99798.19
2023-04-11T04:33:43.094Z,99806.22
2023-04-11T04:35:14.390Z,99801.69
2023-04-11T04:36:46.617Z,99811.03
2023-04-11T04:38:18.124Z,99799.50
2023-04-11T04:39:51.195Z,99794.34
2023-04-11T04:41:22.374Z,99785.63
2023-04-11T04:42:58.632Z,99772.25
2023-04-11T04:44:36.383Z,99776.09
2023-04-11T04:46:12.286Z,99756.69
2023-04-11T04:47:46.421Z,99760.69
2023-04-11T04:49:09.430Z,99746.81
2023-04-11T04:50:32.104Z,99750.50
2023-04-11T04:51:53.376Z,99756.00
2023-04-11T04:53:15.902Z,99750.13
2023-04-11T04:54:46.979Z,99750.94
2023-04-11T04:56:09.528Z,99762.31
2023-04-11T04:57:35.304Z,99757.97
2023-04-11T04:58:57.995Z,99756.63
2023-04-11T05:00:22.903Z,99764.66
2023-04-11T05:01:46.816Z,99762.97
2023-04-11T05:03:11.737Z,99763.28
2023-04-11T05:04:36.314Z,99759.94
2023-04-11T05:06:02.873Z,99769.31
2023-04-11T05:07:26.830Z,99759.47
2023-04-11T05:08:48.870Z,99761.28
2023-04-11T05:10:11.861Z,99754.28
2023-04-11T05:11:40.089Z,99756.41
2023-04-11T05:13:04.160Z,99754.59
2023-04-11T05:14:28.396Z,99749.88
2023-04-11T05:15:51.483Z,99756.91
2023-04-11T05:17:14.783Z,99754.72
2023-04-11T05:18:38.617Z,99748.53
2023-04-11T05:20:03.253Z,99742.34
2023-04-11T05:21:28.140Z,99746.50
2023-04-11T05:22:53.707Z,99736.13
2023-04-11T05:24:17.575Z,99723.72
2023-04-11T05:25:39.785Z,99720.38
2023-04-11T05:27:05.890Z,99717.06
2023-04-11T05:28:27.512Z,99713.88
2023-04-11T05:29:52.493Z,99715.22
2023-04-11T05:31:15.282Z,99711.88
2023-04-11T05:34:28.243Z,99707.53
2023-04-11T05:40:00.837Z,99698.78
2023-04-11T05:41:31.848Z,99689.09
2023-04-11T05:42:56.608Z,99682.34
2023-04-11T05:44:24.089Z,99664.09
2023-04-11T05:45:48.109Z,99676.97
2023-04-11T05:47:15.300Z,99667.75
2023-04-11T05:48:44.085Z,99665.06
2023-04-11T05:50:40.909Z,99655.81
2023-04-11T05:52:05.387Z,99659.81
2023-04-11T05:53:32.155Z,99655.41
2023-04-11T05:54:56.989Z,99635.97
2023-04-11T05:56:19.345Z,99651.66
2023-04-11T05:57:41.529Z,99628.22
2023-04-11T05:59:04.006Z,99641.41
2023-04-11T06:02:24.465Z,99627.47
2023-04-11T06:04:11.299Z,99625.91
2023-04-11T06:05:46.150Z,99628.56
2023-04-11T06:09:18.097Z,99622.44
2023-04-11T06:10:42.340Z,99619.34
2023-04-11T06:12:06.823Z,99618.16
2023-04-11T06:13:32.279Z,99618.44
2023-04-11T06:14:54.999Z,99620.31
2023-04-11T06:16:17.481Z,99609.03
2023-04-11T06:17:38.853Z,99606.13
2023-04-11T06:19:09.707Z,99606.91
2023-04-11T06:20:32.520Z,99602.53
2023-04-11T06:21:59.460Z,99606.38
2023-04-11T06:23:21.965Z,99604.59
2023-04-11T06:24:45.633Z,99604.88
2023-04-11T06:26:11.280Z,99607.47
2023-04-11T06:27:33.686Z,99605.63
2023-04-11T06:28:56.019Z,99618.13
2023-04-11T06:30:18.241Z,99610.75
2023-04-11T06:31:43.955Z,99612.22
2023-04-11T06:33:06.309Z,99618.91
2023-04-11T06:34:29.294Z,99607.31
2023-04-11T06:35:57.240Z,99620.66
2023-04-11T06:37:21.234Z,99615.91
2023-04-11T06:38:43.597Z,99601.50
2023-04-11T06:40:05.923Z,99593.44
2023-04-11T06:41:30.328Z,99600.56
2023-04-11T06:42:53.028Z,99600.16
2023-04-11T06:47:37.140Z,99610.09
2023-04-11T06:49:01.847Z,99585.00
2023-04-11T06:51:34.157Z,99582.13
2023-04-11T06:53:03.100Z,99593.41
2023-04-11T06:54:39.632Z,99585.53
2023-04-11T06:56:04.334Z,99580.97
2023-04-11T06:57:43.375Z,99576.25
2023-04-11T06:59:05.975Z,99576.09
2023-04-11T07:00:31.292Z,99581.44
2023-04-11T07:02:00.341Z,99580.13
2023-04-11T07:03:31.001Z,99579.13
2023-04-11T07:04:55.916Z,99571.06
2023-04-11T07:06:21.212Z,99583.00
2023-04-11T07:08:03.222Z,99587.31
2023-04-11T07:13:03.503Z,99563.78
2023-04-11T07:14:39.721Z,99575.44
2023-04-11T07:16:15.243Z,99557.19
2023-04-11T07:17:52.712Z,99552.47
2023-04-11T07:19:16.781Z,99571.59
2023-04-11T07:20:41.141Z,99567.44
2023-04-11T07:23:06.179Z,99586.31
2023-04-11T07:24:42.566Z,99582.81
2023-04-11T07:26:09.246Z,99584.53
2023-04-11T07:27:50.856Z,99580.50
2023-04-11T07:29:32.247Z,99561.41
2023-04-11T07:32:17.621Z,99561.91
2023-04-11T07:33:45.502Z,99554.31
2023-04-11T07:38:51.139Z,99560.28
2023-04-11T08:02:10.538Z,99503.25
2023-04-11T08:19:31.827Z,99476.00
2023-04-11T08:24:28.758Z,99493.81
2023-04-11T08:28:54.077Z,99482.78
2023-04-11T08:33:34.829Z,99469.38
2023-04-11T08:50:39.847Z,99453.09
2023-04-11T08:53:08.990Z,99453.19
2023-04-11T08:54:37.696Z,99444.88
2023-04-11T09:03:51.460Z,99428.66
2023-04-11T09:05:35.644Z,99433.38
2023-04-11T09:07:18.394Z,99426.66
2023-04-11T09:15:27.016Z,99420.91
2023-04-11T09:17:28.044Z,99413.06
2023-04-11T09:18:59.280Z,99418.44
2023-04-11T09:27:24.961Z,99408.72
2023-04-11T09:29:31.807Z,99409.50
2023-04-11T09:40:49.782Z,99387.56
2023-04-11T10:08:52.713Z,99386.56
2023-04-11T10:10:37.752Z,99383.88
2023-04-11T10:12:08.338Z,99400.59
2023-04-11T10:13:44.044Z,99379.28
2023-04-11T10:15:27.406Z,99388.00
2023-04-11T10:17:46.999Z,99389.00
2023-04-11T10:19:37.696Z,99384.19
2023-04-11T10:24:55.212Z,99416.19
2023-04-11T10:29:53.241Z,99413.50
2023-04-11T10:34:19.604Z,99413.31
2023-04-11T10:35:59.963Z,99407.66
2023-04-11T10:37:35.642Z,99404.53
2023-04-11T10:39:00.037Z,99399.25
2023-04-11T10:40:24.473Z,99395.81
2023-04-11T10:41:50.680Z,99405.31
2023-04-11T10:43:50.286Z,99391.69
2023-04-11T10:46:27.878Z,99404.31
2023-04-11T10:48:08.017Z,99407.38
2023-04-11T10:49:35.124Z,99408.88
2023-04-11T11:00:14.821Z,99413.28
2023-04-11T11:01:48.906Z,99425.03
2023-04-11T11:03:23.785Z,99415.47
2023-04-11T11:05:24.526Z,99427.16
2023-04-11T11:07:37.264Z,99434.47
2023-04-11T11:09:22.188Z,99426.84
2023-04-11T11:10:46.585Z,99431.56
2023-04-11T11:12:10.937Z,99430.34
2023-04-11T11:13:53.970Z,99435.31
2023-04-11T11:18:26.305Z,99452.63
2023-04-11T11:19:50.059Z,99475.72
2023-04-11T11:21:20.618Z,99478.00
2023-04-11T11:23:02.558Z,99468.31
2023-04-11T11:24:35.553Z,99470.50
2023-04-11T11:26:08.930Z,99465.69
2023-04-11T11:28:00.974Z,99465.81
2023-04-11T11:29:32.863Z,99454.66
2023-04-11T11:30:59.252Z,99463.28
2023-04-11T11:32:28.529Z,99484.63
2023-04-11T11:33:55.690Z,99464.13
2023-04-11T11:35:19.308Z,99458.81
2023-04-11T11:37:17.470Z,99468.59
2023-04-11T11:38:58.121Z,99477.00
2023-04-11T11:44:15.929Z,99477.28
2023-04-11T11:46:08.728Z,99480.25
2023-04-11T11:50:43.768Z,99490.75
2023-04-11T11:52:07.556Z,99494.69
2023-04-11T11:53:30.277Z,99494.69
2023-04-11T11:55:36.131Z,99481.59
2023-04-11T11:56:58.757Z,99502.72
2023-04-11T11:58:28.962Z,99499.19
2023-04-11T11:59:57.194Z,99506.19
2023-04-11T12:01:19.804Z,99498.69
2023-04-11T12:02:43.658Z,99509.47
2023-04-11T12:04:41.676Z,99518.34
2023-04-11T12:06:09.256Z,99505.22
2023-04-11T12:07:32.784Z,99498.34
2023-04-11T12:09:04.812Z,99514.31
2023-04-11T12:10:41.407Z,99506.38
2023-04-11T12:12:03.536Z,99506.31
2023-04-11T12:13:43.457Z,99513.56
2023-04-11T12:15:19.617Z,99514.50
2023-04-11T12:16:47.592Z,99504.50
2023-04-11T12:18:10.111Z,99520.47
2023-04-11T12:19:36.367Z,99524.31
2023-04-11T12:21:00.983Z,99515.13
2023-04-11T12:22:38.793Z,99512.53
2023-04-11T12:24:01.965Z,99513.31
2023-04-11T12:28:50.068Z,99500.47
2023-04-11T12:30:18.860Z,99501.69
2023-04-11T12:31:51.431Z,99504.75
2023-04-11T12:33:17.824Z,99503.03
2023-04-11T12:34:42.706Z,99491.13
2023-04-11T12:36:07.214Z,99488.00
2023-04-11T12:37:33.567Z,99502.09
2023-04-11T12:39:00.580Z,99495.69
2023-04-11T12:40:28.743Z,99496.06
2023-04-11T12:41:57.725Z,99491.13
2023-04-11T12:55:17.338Z,99478.41
2023-04-11T12:57:04.619Z,99490.75
2023-04-11T13:02:45.225Z,99476.06
2023-04-11T13:04:08.563Z,99483.00
2023-04-11T13:08:30.854Z,99470.97
2023-04-11T13:09:54.037Z,99469.41
2023-04-11T13:24:12.827Z,99452.53
2023-04-11T13:45:46.551Z,99501.72
2023-04-11T13:47:09.930Z,99512.53
2023-04-11T13:48:32.117Z,99506.31
2023-04-11T13:50:02.236Z,99506.94
2023-04-11T13:51:35.300Z,99506.53
2023-04-11T13:52:58.205Z,99510.06
2023-04-11T13:54:36.712Z,99507.97
2023-04-11T14:02:31.854Z,99491.78
2023-04-11T14:05:52.626Z,99499.25
2023-04-11T14:07:16.603Z,99503.41
2023-04-11T14:12:02.954Z,99488.66
2023-04-11T14:13:42.077Z,99485.53
2023-04-11T14:15:23.473Z,99488.44
2023-04-11T14:16:47.054Z,99488.44
2023-04-11T14:19:24.125Z,99483.66
2023-04-11T14:20:56.725Z,99483.84
2023-04-11T14:22:20.112Z,99492.97
2023-04-11T14:24:54.061Z,99495.91
2023-04-11T14:31:56.877Z,99481.97
2023-04-11T14:34:26.029Z,99483.19
2023-04-11T14:37:10.029Z,99503.91
2023-04-11T14:46:35.710Z,99492.00
2023-04-11T15:00:20.352Z,99485.81
2023-04-11T15:01:48.449Z,99491.66
2023-04-11T15:03:13.503Z,99476.75
2023-04-11T15:04:43.769Z,99486.31
2023-04-11T15:11:07.692Z,99477.00
2023-04-11T15:17:38.467Z,99492.63
2023-04-11T15:20:32.418Z,99499.88
2023-04-11T15:31:14.192Z,99495.91
2023-04-11T15:32:38.986Z,99500.66
2023-04-11T15:34:09.122Z,99495.91
2023-04-11T15:35:34.434Z,99490.31
2023-04-11T15:37:00.936Z,99478.47
2023-04-11T15:38:24.316Z,99488.63
2023-04-11T15:40:00.263Z,99491.94
2023-04-11T15:46:21.760Z,99500.19
2023-04-11T15:50:40.591Z,99490.53
2023-04-11T15:55:18.648Z,99496.97
2023-04-11T15:57:35.355Z,99500.50
2023-04-11T15:59:11.668Z,99487.00
2023-04-11T16:03:13.780Z,99489.94
2023-04-11T16:05:00.067Z,99484.97
2023-04-11T16:06:23.200Z,99480.34
2023-04-11T16:07:45.519Z,99482.03
2023-04-11T16:09:12.157Z,99484.13
2023-04-11T16:10:35.761Z,99473.13
2023-04-11T16:12:39.106Z,99493.03
2023-04-11T16:14:14.737Z,99495.50
2023-04-11T16:15:38.830Z,99493.22
2023-04-11T16:17:06.540Z,99487.47
2023-04-11T16:19:16.533Z,99499.06
2023-04-11T16:21:28.335Z,99493.22
2023-04-11T16:22:56.370Z,99494.06
2023-04-11T16:24:19.301Z,99494.06
2023-04-11T16:25:50.878Z,99497.56
2023-04-11T16:27:13.246Z,99505.25
2023-04-11T16:28:37.828Z,99500.25
2023-04-11T16:33:06.996Z,99505.00
2023-04-11T16:36:18.150Z,99503.91
2023-04-11T16:38:47.384Z,99507.44
2023-04-11T16:40:32.706Z,99495.59
2023-04-11T16:41:56.325Z,99499.13
2023-04-11T16:43:18.641Z,99498.28
2023-04-11T16:44:43.162Z,99500.53
2023-04-11T16:46:07.737Z,99495.75
2023-04-11T16:47:37.860Z,99491.59
2023-04-11T16:49:47.704Z,99502.75
2023-04-11T16:51:15.769Z,99502.50
2023-04-11T16:52:37.658Z,99506.22
2023-04-11T16:54:33.007Z,99501.81
2023-04-11T16:56:00.583Z,99500.75
2023-04-11T16:57:27.636Z,99499.50
2023-04-11T16:58:52.627Z,99506.28
2023-04-11T17:00:20.135Z,99506.88
2023-04-11T17:01:42.707Z,99498.94
2023-04-11T17:03:08.849Z,99507.38
2023-04-11T17:04:39.513Z,99496.13
2023-04-11T17:06:42.363Z,99521.22
2023-04-11T17:08:07.415Z,99507.22
2023-04-11T17:09:40.203Z,99525.22
2023-04-11T17:11:09.381Z,99517.94
2023-04-11T17:12:34.350Z,99513.53
2023-04-11T17:13:57.831Z,99534.66
2023-04-11T17:15:21.328Z,99535.41
2023-04-11T17:16:47.692Z,99534.97
2023-04-11T17:18:10.194Z,99537.59
2023-04-11T17:19:37.153Z,99545.00
2023-04-11T17:20:59.805Z,99538.13
2023-04-11T17:22:42.393Z,99541.19
2023-04-11T17:24:07.157Z,99543.59
2023-04-11T17:25:35.450Z,99543.31
2023-04-11T17:26:59.635Z,99546.97
2023-04-11T17:28:26.054Z,99544.00
2023-04-11T17:29:51.013Z,99552.91
2023-04-11T17:31:13.696Z,99557.00
2023-04-11T17:32:38.109Z,99550.72
2023-04-11T17:34:00.600Z,99555.81
2023-04-11T17:35:24.658Z,99552.38
2023-04-11T17:36:47.946Z,99556.09
2023-04-11T17:38:16.226Z,99554.63
2023-04-11T17:39:39.648Z,99549.50
2023-04-11T17:41:13.839Z,99565.19
2023-04-11T17:42:37.192Z,99565.72
2023-04-11T17:44:01.832Z,99554.59
2023-04-11T17:45:24.366Z,99566.66
2023-04-11T17:46:46.495Z,99556.75
2023-04-11T17:48:09.328Z,99577.28
2023-04-11T17:49:31.646Z,99572.47
2023-04-11T17:51:16.585Z,99574.03
2023-04-11T17:52:40.379Z,99580.41
2023-04-11T17:54:34.535Z,99578.75
2023-04-11T17:55:57.751Z,99590.69
2023-04-11T17:57:20.384Z,99581.31
2023-04-11T17:58:45.317Z,99582.34
2023-04-11T18:00:16.448Z,99585.50
2023-04-11T18:01:40.065Z,99585.03
2023-04-11T18:03:04.663Z,99582.19
2023-04-11T18:04:29.140Z,99592.56
2023-04-11T18:05:52.446Z,99603.94
2023-04-11T18:07:16.592Z,99614.47
2023-04-11T18:08:50.309Z,99631.06
2023-04-11T18:10:16.514Z,99619.97
2023-04-11T18:14:05.597Z,99624.56
2023-04-11T18:16:34.804Z,99643.63
2023-04-11T18:18:00.024Z,99630.56
2023-04-11T18:19:25.491Z,99638.53
2023-04-11T18:20:58.226Z,99646.22
2023-04-11T18:22:29.374Z,99646.75
2023-04-11T18:23:52.208Z,99650.81
2023-04-11T18:25:14.525Z,99653.88
2023-04-11T18:26:37.028Z,99653.88
2023-04-11T18:27:59.346Z,99650.81
2023-04-11T18:29:27.076Z,99651.72
2023-04-11T18:31:42.668Z,99655.88
2023-04-11T18:32:55.106Z,99650.06
2023-04-11T18:34:25.898Z,99654.94
2023-04-11T18:36:22.578Z,99649.78
2023-04-11T18:37:52.120Z,99638.75
2023-04-11T18:39:18.868Z,99648.28
2023-04-11T18:40:41.241Z,99652.63
2023-04-11T18:42:09.802Z,99644.13
2023-04-11T18:43:38.906Z,99636.41
2023-04-11T18:45:05.367Z,99639.94
2023-04-11T18:46:28.425Z,99633.38
2023-04-11T18:47:51.638Z,99624.19
2023-04-11T18:49:17.776Z,99636.41
2023-04-11T18:51:03.173Z,99640.09
2023-04-11T18:52:31.745Z,99632.06
2023-04-11T18:54:16.973Z,99626.41
2023-04-11T18:55:44.359Z,99636.97
2023-04-11T18:57:10.601Z,99635.28
2023-04-11T18:58:46.709Z,99645.31
2023-04-11T19:00:19.485Z,99636.31
2023-04-11T19:01:52.532Z,99641.19
2023-04-11T19:03:34.996Z,99641.84
2023-04-11T19:05:03.285Z,99655.91
2023-04-11T19:06:29.533Z,99646.22
2023-04-11T19:10:28.793Z,99660.25
2023-04-11T19:15:21.609Z,99657.47
2023-04-11T19:17:24.626Z,99650.63
2023-04-11T19:18:52.499Z,99655.31
2023-04-11T19:20:50.385Z,99641.78
2023-04-11T19:22:18.540Z,99658.34
2023-04-11T19:23:44.794Z,99642.97
2023-04-11T19:26:14.805Z,99653.53
2023-04-11T19:27:56.624Z,99640.16
2023-04-11T19:29:24.170Z,99649.69
2023-04-11T19:30:53.226Z,99631.34
2023-04-11T19:34:38.536Z,99631.88
2023-04-11T19:36:10.657Z,99638.56
2023-04-11T19:38:09.185Z,99637.22
2023-04-11T19:39:40.237Z,99645.09
2023-04-11T19:41:14.763Z,99653.31
2023-04-11T19:42:40.624Z,99650.63
2023-04-11T19:44:14.568Z,99647.28
2023-04-11T19:45:44.188Z,99657.34
2023-04-11T19:47:09.659Z,99640.66
2023-04-11T19:48:39.044Z,99635.50
2023-04-11T19:50:25.823Z,99649.88
2023-04-11T19:51:53.166Z,99646.22
2023-04-11T19:53:21.103Z,99639.88
2023-04-11T19:54:55.180Z,99642.06
2023-04-11T19:56:25.172Z,99632.88
2023-04-11T19:57:58.194Z,99639.59
2023-04-11T19:59:31.571Z,99637.94
2023-04-11T20:01:08.841Z,99633.44
2023-04-11T20:02:51.948Z,99649.50
2023-04-11T20:04:36.251Z,99653.72
2023-04-11T20:06:05.747Z,99644.03
2023-04-11T20:07:54.388Z,99641.88
2023-04-11T20:13:59.592Z,99646.41
2023-04-11T20:15:39.751Z,99658.47
2023-04-11T20:17:21.790Z,99647.13
2023-04-11T20:18:50.132Z,99646.59
2023-04-11T20:20:43.597Z,99658.81
